Nutting Lake, Massachusetts
Current Conditions -  °F | °C
As of 3:24 PM on Monday 22 Dec 2014 (Local Time) from KBED Reporting Station
Overcast Overcast  
Wind Chill: 34°   Ceiling: 1300
Heat Index: 40°   Visibility: 9mi
Dew Point: 36°   Wind: 9mph
Humidity: 86%   Direction: 40°NE
Pressure: 30.3"   Gusts: NA
Location:  42.54°N, 71.27°W
Report Text: KBED 222024Z 04008KT 9SM OVC013 04/02 A3030 RMK AO2 T00440022
Loading
Personal Weather Stations






























Interactive Weather Map New forecast layout! Learn more

10-Day Weather Forecast

Advertisements
Track Severe Weather on mobile